createdAt,value
2023-01-28T00:02:15.337Z,79.20
2023-01-28T00:04:43.433Z,79.20
2023-01-28T00:07:12.860Z,79.10
2023-01-28T00:09:40.954Z,79.20
2023-01-28T00:12:09.590Z,79.20
2023-01-28T00:14:38.454Z,79.20
2023-01-28T00:17:07.403Z,79.20
2023-01-28T00:19:36.043Z,79.20
2023-01-28T00:22:04.968Z,79.20
2023-01-28T00:24:34.916Z,80.10
2023-01-28T00:27:03.027Z,79.20
2023-01-28T00:29:31.623Z,79.20
2023-01-28T00:32:02.602Z,79.20
2023-01-28T00:34:30.685Z,79.40
2023-01-28T00:36:59.214Z,79.30
2023-01-28T00:39:28.111Z,79.40
2023-01-28T00:41:58.009Z,79.40
2023-01-28T00:44:26.119Z,79.50
2023-01-28T00:46:54.247Z,79.50
2023-01-28T00:49:22.793Z,79.60
2023-01-28T00:51:50.900Z,79.60
2023-01-28T00:54:19.656Z,79.60
2023-01-28T00:56:48.235Z,79.50
2023-01-28T00:59:17.716Z,79.40
2023-01-28T01:01:45.968Z,79.50
2023-01-28T01:04:14.567Z,79.70
2023-01-28T01:06:42.701Z,79.60
2023-01-28T01:09:12.971Z,79.60
2023-01-28T01:11:41.055Z,79.90
2023-01-28T01:14:12.099Z,79.90
2023-01-28T01:16:41.589Z,80.00
2023-01-28T01:19:10.671Z,79.80
2023-01-28T01:21:38.829Z,80.00
2023-01-28T01:24:08.195Z,79.90
2023-01-28T01:26:36.324Z,80.10
2023-01-28T01:29:04.393Z,80.10
2023-01-28T01:31:33.015Z,80.10
2023-01-28T01:34:02.941Z,80.10
2023-01-28T01:36:31.063Z,80.10
2023-01-28T01:38:59.600Z,80.10
2023-01-28T01:41:31.278Z,80.30
2023-01-28T01:44:01.076Z,80.30
2023-01-28T01:46:38.868Z,80.30
2023-01-28T01:49:19.161Z,80.30
2023-01-28T01:51:49.991Z,80.40
2023-01-28T01:54:18.789Z,80.40
2023-01-28T01:56:51.217Z,80.40
2023-01-28T01:59:26.232Z,80.50
2023-01-28T02:01:55.308Z,80.50
2023-01-28T02:04:28.578Z,80.50
2023-01-28T02:06:57.876Z,80.50
2023-01-28T02:09:29.483Z,80.60
2023-01-28T02:12:02.780Z,80.60
2023-01-28T02:14:34.006Z,80.60
2023-01-28T02:17:03.557Z,80.60
2023-01-28T02:19:38.946Z,80.70
2023-01-28T02:22:26.143Z,80.70
2023-01-28T02:25:13.323Z,80.60
2023-01-28T02:28:07.406Z,80.60
2023-01-28T02:30:41.067Z,80.60
2023-01-28T02:33:15.492Z,80.50
2023-01-28T02:35:49.297Z,80.50
2023-01-28T02:38:25.028Z,80.50
2023-01-28T02:41:06.842Z,80.50
2023-01-28T02:43:38.778Z,80.60
2023-01-28T02:46:35.892Z,80.60
2023-01-28T02:49:07.507Z,80.60
2023-01-28T02:51:49.623Z,80.60
2023-01-28T02:54:30.763Z,80.50
2023-01-28T02:57:07.057Z,80.50
2023-01-28T02:59:43.166Z,80.50
2023-01-28T03:02:17.101Z,80.50
2023-01-28T03:04:50.832Z,80.50
2023-01-28T03:07:20.313Z,80.40
2023-01-28T03:09:51.263Z,80.40
2023-01-28T03:12:41.108Z,80.40
2023-01-28T03:15:32.590Z,81.30
2023-01-28T03:18:22.310Z,80.40
2023-01-28T03:21:14.005Z,80.40
2023-01-28T03:24:07.043Z,80.50
2023-01-28T03:26:56.777Z,80.40
2023-01-28T03:29:44.619Z,80.40
2023-01-28T03:32:32.449Z,80.50
2023-01-28T03:35:18.389Z,80.50
2023-01-28T03:37:46.773Z,80.50
2023-01-28T03:40:15.716Z,80.50
2023-01-28T03:42:44.282Z,80.50
2023-01-28T03:45:14.991Z,80.50
2023-01-28T03:47:45.048Z,80.60
2023-01-28T03:50:13.088Z,80.50
2023-01-28T03:52:42.012Z,80.50
2023-01-28T03:55:15.257Z,80.50
2023-01-28T03:57:45.291Z,80.60
2023-01-28T04:00:17.647Z,80.40
2023-01-28T04:02:47.575Z,80.50
2023-01-28T04:05:19.872Z,81.10
2023-01-28T04:07:48.473Z,80.00
2023-01-28T04:10:17.283Z,80.00
2023-01-28T04:12:45.808Z,80.00
2023-01-28T04:15:17.196Z,79.80
2023-01-28T04:17:48.722Z,80.00
2023-01-28T04:20:17.205Z,80.00
2023-01-28T04:22:45.754Z,80.10
2023-01-28T04:25:14.611Z,80.10
2023-01-28T04:27:43.288Z,80.10
2023-01-28T04:30:12.839Z,80.20
2023-01-28T04:32:41.371Z,80.30
2023-01-28T04:35:11.396Z,80.30
2023-01-28T04:37:40.238Z,80.30
2023-01-28T04:40:10.342Z,80.50
2023-01-28T04:42:38.459Z,80.50
2023-01-28T04:45:08.161Z,80.50
2023-01-28T04:47:36.205Z,80.60
2023-01-28T04:50:04.892Z,80.60
2023-01-28T04:52:34.313Z,80.60
2023-01-28T04:55:03.691Z,80.60
2023-01-28T04:57:31.725Z,80.70
2023-01-28T04:59:59.820Z,80.70
2023-01-28T05:02:28.384Z,80.80
2023-01-28T05:04:56.900Z,80.80
2023-01-28T05:07:25.102Z,80.80
2023-01-28T05:09:54.521Z,80.80
2023-01-28T05:12:23.112Z,80.90
2023-01-28T05:14:51.130Z,80.90
2023-01-28T05:17:19.267Z,80.90
2023-01-28T05:19:47.364Z,81.00
2023-01-28T05:22:15.855Z,81.10
2023-01-28T05:24:44.388Z,81.10
2023-01-28T05:27:14.448Z,81.10
2023-01-28T05:29:43.138Z,81.30
2023-01-28T05:32:11.648Z,81.30
2023-01-28T05:34:39.687Z,81.30
2023-01-28T05:37:08.202Z,81.40
2023-01-28T05:39:36.256Z,81.40
2023-01-28T05:42:04.910Z,81.50
2023-01-28T05:44:34.388Z,81.60
2023-01-28T05:47:02.926Z,81.40
2023-01-28T05:49:30.907Z,81.40
2023-01-28T05:51:59.396Z,81.60
2023-01-28T05:54:27.851Z,81.60
2023-01-28T05:56:55.967Z,81.60
2023-01-28T05:59:24.507Z,81.70
2023-01-28T06:01:53.976Z,81.70
2023-01-28T06:04:22.493Z,81.80
2023-01-28T06:06:51.013Z,81.80
2023-01-28T06:09:19.033Z,81.90
2023-01-28T06:11:47.591Z,81.70
2023-01-28T06:14:15.628Z,81.70
2023-01-28T06:16:44.425Z,81.80
2023-01-28T06:19:14.487Z,82.70
2023-01-28T06:21:43.494Z,81.80
2023-01-28T06:24:11.731Z,81.80
2023-01-28T06:26:40.458Z,81.80
2023-01-28T06:29:08.478Z,81.80
2023-01-28T06:31:37.039Z,81.90
2023-01-28T06:34:05.605Z,81.80
2023-01-28T06:36:35.506Z,81.90
2023-01-28T06:39:03.661Z,81.90
2023-01-28T06:41:32.065Z,82.00
2023-01-28T06:44:00.675Z,82.80
2023-01-28T06:50:11.559Z,82.20
2023-01-28T06:52:41.689Z,82.00
2023-01-28T06:55:10.267Z,82.00
2023-01-28T06:57:40.094Z,82.10
2023-01-28T07:00:11.272Z,82.10
2023-01-28T07:02:39.403Z,82.20
2023-01-28T07:05:08.342Z,82.20
2023-01-28T07:07:36.956Z,82.30
2023-01-28T07:10:07.649Z,82.20
2023-01-28T07:12:36.222Z,82.40
2023-01-28T07:15:04.516Z,82.30
2023-01-28T07:17:33.149Z,82.30
2023-01-28T07:20:01.305Z,82.40
2023-01-28T07:22:29.916Z,82.40
2023-01-28T07:24:58.794Z,82.50
2023-01-28T07:27:28.748Z,82.50
2023-01-28T07:29:56.842Z,82.60
2023-01-28T07:32:27.323Z,82.60
2023-01-28T07:34:55.590Z,82.60
2023-01-28T07:37:23.759Z,82.60
2023-01-28T07:39:52.245Z,82.60
2023-01-28T07:42:20.373Z,82.80
2023-01-28T07:44:50.540Z,82.70
2023-01-28T07:47:20.023Z,82.70
2023-01-28T07:49:48.522Z,82.70
2023-01-28T07:52:17.090Z,82.80
2023-01-28T07:54:45.246Z,82.70
2023-01-28T07:57:13.848Z,82.80
2023-01-28T07:59:41.936Z,82.70
2023-01-28T08:02:14.061Z,82.80
2023-01-28T08:04:42.343Z,82.80
2023-01-28T08:07:10.546Z,82.70
2023-01-28T08:09:39.239Z,82.80
2023-01-28T08:12:07.612Z,82.80
2023-01-28T08:14:36.189Z,82.90
2023-01-28T08:17:04.304Z,82.90
2023-01-28T08:19:34.279Z,82.90
2023-01-28T08:22:02.840Z,82.80
2023-01-28T08:24:31.045Z,82.80
2023-01-28T08:26:59.669Z,82.80
2023-01-28T08:29:27.734Z,82.80
2023-01-28T08:31:56.263Z,82.80
2023-01-28T08:34:24.594Z,82.80
2023-01-28T08:36:54.821Z,82.80
2023-01-28T08:39:23.411Z,82.70
2023-01-28T08:41:51.505Z,82.60
2023-01-28T08:44:20.192Z,82.80
2023-01-28T08:46:48.746Z,82.80
2023-01-28T08:49:17.358Z,82.80
2023-01-28T08:51:45.798Z,82.80
2023-01-28T08:54:15.736Z,82.60
2023-01-28T08:56:44.983Z,82.60
2023-01-28T08:59:13.690Z,82.60
2023-01-28T09:01:42.597Z,82.60
2023-01-28T09:04:10.779Z,82.60
2023-01-28T09:06:39.371Z,82.50
2023-01-28T09:09:07.950Z,82.40
2023-01-28T09:11:37.533Z,82.30
2023-01-28T09:14:06.163Z,82.20
2023-01-28T09:16:34.270Z,82.20
2023-01-28T09:19:02.830Z,82.10
2023-01-28T09:21:30.910Z,82.00
2023-01-28T09:23:59.533Z,82.00
2023-01-28T09:26:27.649Z,82.00
2023-01-28T09:28:57.149Z,82.00
2023-01-28T09:31:26.083Z,82.00
2023-01-28T09:33:57.225Z,81.90
2023-01-28T09:36:25.880Z,81.90
2023-01-28T09:38:53.998Z,81.70
2023-01-28T09:41:28.194Z,81.60
2023-01-28T09:44:07.881Z,81.60
2023-01-28T09:46:38.840Z,81.60
2023-01-28T09:49:16.556Z,81.50
2023-01-28T09:51:49.476Z,81.40
2023-01-28T09:54:28.454Z,81.40
2023-01-28T09:57:05.327Z,81.10
2023-01-28T09:59:37.732Z,81.20
2023-01-28T10:02:27.139Z,81.10
2023-01-28T10:05:03.699Z,81.20
2023-01-28T10:07:39.551Z,81.10
2023-01-28T10:10:13.437Z,81.00
2023-01-28T10:13:03.765Z,80.90
2023-01-28T10:16:01.891Z,80.70
2023-01-28T10:18:38.217Z,80.50
2023-01-28T10:21:16.571Z,80.40
2023-01-28T10:23:57.735Z,80.40
2023-01-28T10:26:28.621Z,80.40
2023-01-28T10:29:01.495Z,80.40
2023-01-28T10:31:36.862Z,80.20
2023-01-28T10:34:05.411Z,80.20
2023-01-28T10:36:33.947Z,80.10
2023-01-28T10:39:02.228Z,80.00
2023-01-28T10:41:30.405Z,79.90
2023-01-28T10:43:59.617Z,79.70
2023-01-28T10:46:34.698Z,79.50
2023-01-28T10:49:13.352Z,79.50
2023-01-28T10:51:44.085Z,79.50
2023-01-28T10:54:23.852Z,79.50
2023-01-28T10:56:56.095Z,79.30
2023-01-28T10:59:28.619Z,79.50
2023-01-28T11:02:04.126Z,79.30
2023-01-28T11:04:34.429Z,79.30
2023-01-28T11:07:03.751Z,79.30
2023-01-28T11:09:33.881Z,79.10
2023-01-28T11:12:13.964Z,78.90
2023-01-28T11:14:52.587Z,78.60
2023-01-28T11:17:26.114Z,78.60
2023-01-28T11:19:56.137Z,78.60
2023-01-28T11:22:33.316Z,78.60
2023-01-28T11:25:03.216Z,78.50
2023-01-28T11:27:33.054Z,78.30
2023-01-28T11:30:04.967Z,78.40
2023-01-28T11:32:34.739Z,78.30
2023-01-28T11:35:03.423Z,78.00
2023-01-28T11:37:33.194Z,78.00
2023-01-28T11:40:21.474Z,78.10
2023-01-28T11:42:52.431Z,77.80
2023-01-28T11:45:25.163Z,78.00
2023-01-28T11:48:09.253Z,78.00
2023-01-28T11:50:45.990Z,77.60
2023-01-28T11:53:52.343Z,77.70
2023-01-28T11:56:44.435Z,77.40
2023-01-28T11:59:39.608Z,77.50
2023-01-28T12:02:22.610Z,77.60
2023-01-28T12:05:06.131Z,77.60
2023-01-28T12:07:47.023Z,77.50
2023-01-28T12:10:23.983Z,77.30
2023-01-28T12:13:05.605Z,77.20
2023-01-28T12:16:01.490Z,77.00
2023-01-28T12:18:54.877Z,76.80
2023-01-28T12:21:35.301Z,77.80
2023-01-28T12:24:18.176Z,76.90
2023-01-28T12:26:54.620Z,76.90
2023-01-28T12:29:31.833Z,76.90
2023-01-28T12:32:30.279Z,76.90
2023-01-28T12:35:23.307Z,76.90
2023-01-28T12:38:04.525Z,76.80
2023-01-28T12:40:51.845Z,76.70
2023-01-28T12:43:25.534Z,76.60
2023-01-28T12:45:58.200Z,76.70
2023-01-28T12:48:33.313Z,76.50
2023-01-28T12:51:06.490Z,76.60
2023-01-28T12:53:42.427Z,76.50
2023-01-28T12:56:16.938Z,76.60
2023-01-28T12:58:50.063Z,76.60
2023-01-28T13:01:22.374Z,76.50
2023-01-28T13:03:58.315Z,76.30
2023-01-28T13:06:32.896Z,76.00
2023-01-28T13:09:13.359Z,76.20
2023-01-28T13:11:42.337Z,76.30
2023-01-28T13:14:14.308Z,76.40
2023-01-28T13:16:43.088Z,76.40
2023-01-28T13:19:25.056Z,76.50
2023-01-28T13:21:53.524Z,76.40
2023-01-28T13:24:33.224Z,76.50
2023-01-28T13:27:13.918Z,76.50
2023-01-28T13:29:42.085Z,76.30
2023-01-28T13:32:33.417Z,76.50
2023-01-28T13:35:06.059Z,76.10
2023-01-28T13:37:39.194Z,76.30
2023-01-28T13:40:30.159Z,76.30
2023-01-28T13:43:04.341Z,76.20
2023-01-28T13:45:34.132Z,76.40
2023-01-28T13:48:20.999Z,76.50
2023-01-28T13:50:53.300Z,76.10
2023-01-28T13:53:31.743Z,76.30
2023-01-28T13:56:08.997Z,76.00
2023-01-28T13:59:12.276Z,76.90
2023-01-28T14:02:40.871Z,75.80
2023-01-28T14:05:41.369Z,75.50
2023-01-28T14:08:50.029Z,75.40
2023-01-28T14:11:34.032Z,75.60
2023-01-28T14:14:28.644Z,75.60
2023-01-28T14:17:00.166Z,75.40
2023-01-28T14:19:32.979Z,76.60
2023-01-28T14:22:08.165Z,75.60
2023-01-28T14:24:39.359Z,75.60
2023-01-28T14:27:14.087Z,75.50
2023-01-28T14:29:53.711Z,76.20
2023-01-28T14:32:27.140Z,75.20
2023-01-28T14:34:57.147Z,75.40
2023-01-28T14:37:29.972Z,75.40
2023-01-28T14:40:01.246Z,75.40
2023-01-28T14:42:34.226Z,75.50
2023-01-28T14:45:23.740Z,75.40
2023-01-28T14:48:06.942Z,75.20
2023-01-28T14:50:48.897Z,75.40
2023-01-28T14:53:42.103Z,75.40
2023-01-28T14:56:20.956Z,75.20
2023-01-28T14:58:54.232Z,75.20
2023-01-28T15:01:25.155Z,75.20
2023-01-28T15:03:55.204Z,75.20
2023-01-28T15:06:25.542Z,75.20
2023-01-28T15:08:54.808Z,75.30
2023-01-28T15:11:25.708Z,75.20
2023-01-28T15:13:58.334Z,75.20
2023-01-28T15:16:30.319Z,75.20
2023-01-28T15:19:01.828Z,75.20
2023-01-28T15:21:31.271Z,75.20
2023-01-28T15:24:03.346Z,75.10
2023-01-28T15:26:34.815Z,75.00
2023-01-28T15:29:04.813Z,74.80
2023-01-28T15:31:35.046Z,74.80
2023-01-28T15:34:06.104Z,74.70
2023-01-28T15:36:34.213Z,74.50
2023-01-28T15:39:02.848Z,74.50
2023-01-28T15:41:34.670Z,74.50
2023-01-28T15:44:05.459Z,74.50
2023-01-28T15:46:34.379Z,74.50
2023-01-28T15:49:04.603Z,74.40
2023-01-28T15:51:35.414Z,74.30
2023-01-28T15:54:07.773Z,74.30
2023-01-28T15:56:38.027Z,74.30
2023-01-28T15:59:18.845Z,74.30
2023-01-28T16:01:47.590Z,74.20
2023-01-28T16:04:26.861Z,75.20
2023-01-28T16:06:57.235Z,73.90
2023-01-28T16:09:29.427Z,74.10
2023-01-28T16:12:03.257Z,74.10
2023-01-28T16:14:37.087Z,74.10
2023-01-28T16:17:05.359Z,74.10
2023-01-28T16:19:40.930Z,73.90
2023-01-28T16:22:19.424Z,73.90
2023-01-28T16:24:52.963Z,73.90
2023-01-28T16:27:23.306Z,73.80
2023-01-28T16:29:53.526Z,73.80
2023-01-28T16:32:30.915Z,73.60
2023-01-28T16:34:59.270Z,73.50
2023-01-28T16:39:58.108Z,73.50
2023-01-28T16:42:29.173Z,73.50
2023-01-28T16:44:59.442Z,73.70
2023-01-28T16:47:28.558Z,73.60
2023-01-28T16:49:57.152Z,73.70
2023-01-28T16:52:25.298Z,73.70
2023-01-28T16:54:53.406Z,73.60
2023-01-28T16:57:23.283Z,73.50
2023-01-28T16:59:51.871Z,73.40
2023-01-28T17:02:22.956Z,73.30
2023-01-28T17:04:51.271Z,73.30
2023-01-28T17:07:20.102Z,73.40
2023-01-28T17:09:48.208Z,73.50
2023-01-28T17:12:17.473Z,74.30
2023-01-28T17:14:45.567Z,73.30
2023-01-28T17:17:14.138Z,73.30
2023-01-28T17:19:43.611Z,73.30
2023-01-28T17:22:11.903Z,73.40
2023-01-28T17:24:40.003Z,73.40
2023-01-28T17:27:08.804Z,73.40
2023-01-28T17:29:37.186Z,73.30
2023-01-28T17:32:05.406Z,73.40
2023-01-28T17:34:34.007Z,73.30
2023-01-28T17:37:04.543Z,72.90
2023-01-28T17:39:33.113Z,72.90
2023-01-28T17:42:01.702Z,72.90
2023-01-28T17:44:30.334Z,72.90
2023-01-28T17:46:58.431Z,73.10
2023-01-28T17:49:27.122Z,73.30
2023-01-28T17:51:55.222Z,73.50
2023-01-28T17:54:27.312Z,73.60
2023-01-28T17:56:56.543Z,73.50
2023-01-28T17:59:25.890Z,73.40
2023-01-28T18:01:55.453Z,73.50
2023-01-28T18:04:24.113Z,73.60
2023-01-28T18:06:53.158Z,73.60
2023-01-28T18:09:21.348Z,73.50
2023-01-28T18:11:50.896Z,73.60
2023-01-28T18:14:19.010Z,73.80
2023-01-28T18:16:47.589Z,73.80
2023-01-28T18:19:18.253Z,73.90
2023-01-28T18:21:53.393Z,73.70
2023-01-28T18:24:24.155Z,73.60
2023-01-28T18:26:55.478Z,73.60
2023-01-28T18:29:24.623Z,73.50
2023-01-28T18:31:54.404Z,73.50
2023-01-28T18:34:24.622Z,73.60
2023-01-28T18:36:53.826Z,73.50
2023-01-28T18:39:23.287Z,73.40
2023-01-28T18:41:56.079Z,73.50
2023-01-28T18:44:25.601Z,73.50
2023-01-28T18:46:54.800Z,73.60
2023-01-28T18:49:24.644Z,73.60
2023-01-28T18:51:53.282Z,73.60
2023-01-28T18:54:21.499Z,73.60
2023-01-28T18:56:51.246Z,73.50
2023-01-28T18:59:21.367Z,73.60
2023-01-28T19:01:50.358Z,73.70
2023-01-28T19:04:18.873Z,73.50
2023-01-28T19:06:48.386Z,73.50
2023-01-28T19:09:18.008Z,73.50
2023-01-28T19:11:48.795Z,73.70
2023-01-28T19:14:17.108Z,73.70
2023-01-28T19:16:47.373Z,74.50
2023-01-28T19:19:15.889Z,73.50
2023-01-28T19:21:44.062Z,73.60
2023-01-28T19:24:14.282Z,73.70
2023-01-28T19:26:43.953Z,73.80
2023-01-28T19:29:15.532Z,73.80
2023-01-28T19:31:49.341Z,73.50
2023-01-28T19:34:18.948Z,73.60
2023-01-28T19:36:48.255Z,73.50
2023-01-28T19:39:16.877Z,73.30
2023-01-28T19:41:45.704Z,73.20
2023-01-28T19:44:14.103Z,73.30
2023-01-28T19:46:42.339Z,73.30
2023-01-28T19:49:11.209Z,73.30
2023-01-28T19:51:40.843Z,73.10
2023-01-28T19:54:08.944Z,73.10
2023-01-28T19:56:37.722Z,73.30
2023-01-28T19:59:06.627Z,73.10
2023-01-28T20:01:36.018Z,73.10
2023-01-28T20:04:05.325Z,73.20
2023-01-28T20:06:34.245Z,73.20
2023-01-28T20:09:06.271Z,73.30
2023-01-28T20:11:34.430Z,73.40
2023-01-28T20:14:02.675Z,73.50
2023-01-28T20:16:32.946Z,73.50
2023-01-28T20:19:03.764Z,73.70
2023-01-28T20:21:33.013Z,73.60
2023-01-28T20:24:03.632Z,73.50
2023-01-28T20:26:34.645Z,73.60
2023-01-28T20:29:04.069Z,73.50
2023-01-28T20:31:32.908Z,73.30
2023-01-28T20:34:01.309Z,73.20
2023-01-28T20:36:29.799Z,73.30
2023-01-28T20:38:58.447Z,73.30
2023-01-28T20:41:28.571Z,73.30
2023-01-28T20:43:57.184Z,73.30
2023-01-28T20:46:30.855Z,73.30
2023-01-28T20:49:01.007Z,73.10
2023-01-28T20:51:35.727Z,73.00
2023-01-28T20:54:04.339Z,73.60
2023-01-28T20:56:34.660Z,72.80
2023-01-28T20:59:04.227Z,72.60
2023-01-28T21:01:35.361Z,72.70
2023-01-28T21:04:05.662Z,72.70
2023-01-28T21:06:34.181Z,72.70
2023-01-28T21:09:03.014Z,72.70
2023-01-28T21:11:31.203Z,72.70
2023-01-28T21:14:00.764Z,72.50
2023-01-28T21:16:29.829Z,72.30
2023-01-28T21:18:58.694Z,72.30
2023-01-28T21:21:29.079Z,72.30
2023-01-28T21:24:00.707Z,72.40
2023-01-28T21:26:29.503Z,72.30
2023-01-28T21:28:58.123Z,72.10
2023-01-28T21:31:28.005Z,72.10
2023-01-28T21:33:59.137Z,72.00
2023-01-28T21:36:28.278Z,72.00
2023-01-28T21:38:57.602Z,72.00
2023-01-28T21:41:26.727Z,71.90
2023-01-28T21:43:57.285Z,71.90
2023-01-28T21:46:29.533Z,71.90
2023-01-28T21:48:59.205Z,71.80
2023-01-28T21:51:39.540Z,71.80
2023-01-28T21:54:09.816Z,71.80
2023-01-28T21:56:37.825Z,71.80
2023-01-28T21:59:23.930Z,71.80
2023-01-28T22:01:54.003Z,71.90
2023-01-28T22:04:23.248Z,71.80
2023-01-28T22:06:53.752Z,71.80
2023-01-28T22:09:21.890Z,71.90
2023-01-28T22:11:50.736Z,71.70
2023-01-28T22:14:19.526Z,71.70
2023-01-28T22:16:48.034Z,71.70
2023-01-28T22:19:17.669Z,71.50
2023-01-28T22:21:47.529Z,71.50
2023-01-28T22:24:17.886Z,71.60
2023-01-28T22:26:48.139Z,71.60
2023-01-28T22:29:18.042Z,71.50
2023-01-28T22:31:47.878Z,71.50
2023-01-28T22:34:18.813Z,71.60
2023-01-28T22:36:47.745Z,71.50
2023-01-28T22:39:18.002Z,71.40
2023-01-28T22:41:47.435Z,71.40
2023-01-28T22:44:16.107Z,71.50
2023-01-28T22:46:44.361Z,71.40
2023-01-28T22:49:15.403Z,71.40
2023-01-28T22:51:45.390Z,71.50
2023-01-28T22:54:15.318Z,71.40
2023-01-28T22:56:43.472Z,71.40
2023-01-28T22:59:13.947Z,71.30
2023-01-28T23:01:42.530Z,71.30
2023-01-28T23:04:10.691Z,71.30
2023-01-28T23:06:38.927Z,71.10
2023-01-28T23:09:08.502Z,70.90
2023-01-28T23:11:36.673Z,71.00
2023-01-28T23:14:22.599Z,71.00
2023-01-28T23:17:08.820Z,71.00
2023-01-28T23:19:54.954Z,71.10
2023-01-28T23:22:43.381Z,71.10
2023-01-28T23:25:13.460Z,71.10
2023-01-28T23:27:41.602Z,71.00
2023-01-28T23:30:15.108Z,71.00
2023-01-28T23:32:46.646Z,70.90
2023-01-28T23:35:15.032Z,70.80
2023-01-28T23:37:43.217Z,70.70
2023-01-28T23:40:15.109Z,70.60
2023-01-28T23:42:45.370Z,70.50
2023-01-28T23:45:14.027Z,70.60
2023-01-28T23:47:42.623Z,70.60
2023-01-28T23:50:11.850Z,70.70
2023-01-28T23:52:40.030Z,70.70
2023-01-28T23:55:09.496Z,70.70
2023-01-28T23:57:38.998Z,70.70
